»·PEaware :: WAT169 KSNA-KSBP

WAT169 :: KSNA-KSBP

FLIGHT INFORMATION

Flight Status: Arrived
Operator:
Walker Air Transport
More flights by this operator :: More flights under this callsign
Pilot: Marty P. (27464)
Aircraft: BEECH AIRCRAFT BARON
(BE58)
More flights by this aircraft type
Origin: KSNA John Wayne-Orange Co
United States
Destination: KSBP San Luis Co Regl
United States
More flights between these airports :: More routes between these airports
Route:
File this flight plan on PilotEdge
Remarks:
Altitude:
(Current/Filed)
12,500ft
Speed:
(Current/Filed)
0kts
Departed: 12-Jan-21 12:38 PM
Arrived: 12-Jan-21 01:44 PM
Distance/Time
Traveled:
166nm/1:05
Distance/Time
To Go:
Arrived

Flight Plot

Page will automatically refresh every two minutes.


Map Options




Map Legend


Flown Route
Filed Route
Departure Airport
Arrival Airport
Navaid (VOR, NDB)
Fix

Horizontal Profiles

Position Reports

Time Latitude Longitude Heading Altitude Ground
Speed
12-Jan-21 12:26 33.667178 -117.872126 225 57ft 0kts
12-Jan-21 12:27 33.667178 -117.872126 225 57ft 0kts
12-Jan-21 12:28 33.668561 -117.871493 39 57ft 10kts
12-Jan-21 12:29 33.671037 -117.868946 38 57ft 15kts
12-Jan-21 12:30 33.674100 -117.867083 24 57ft 9kts
12-Jan-21 12:31 33.677136 -117.865163 28 57ft 13kts
12-Jan-21 12:32 33.679995 -117.863701 297 57ft 3kts
12-Jan-21 12:33 33.680003 -117.863719 297 57ft 0kts
12-Jan-21 12:34 33.680003 -117.863719 297 57ft 0kts
12-Jan-21 12:35 33.680003 -117.863719 297 57ft 0kts
12-Jan-21 12:36 33.680003 -117.863719 297 57ft 0kts
12-Jan-21 12:37 33.673079 -117.868668 216 136ft 102kts
12-Jan-21 12:38 33.652664 -117.896275 232 1349ft 111kts
12-Jan-21 12:39 33.633247 -117.925918 232 2442ft 131kts
12-Jan-21 12:40 33.608176 -117.965983 232 2393ft 149kts
12-Jan-21 12:41 33.585951 -118.001247 235 2406ft 124kts
12-Jan-21 12:42 33.565170 -118.034268 232 3206ft 111kts
12-Jan-21 12:43 33.577181 -118.061338 330 4454ft 107kts
12-Jan-21 12:44 33.604403 -118.082205 326 5626ft 122kts
12-Jan-21 12:45 33.632006 -118.108653 318 6525ft 153kts
12-Jan-21 12:46 33.668001 -118.147353 318 6501ft 188kts
12-Jan-21 12:47 33.708272 -118.190450 318 6499ft 197kts
12-Jan-21 12:48 33.749549 -118.234667 318 6497ft 199kts
12-Jan-21 12:49 33.790687 -118.278794 318 6497ft 199kts
12-Jan-21 12:50 33.831790 -118.322881 318 6523ft 197kts
12-Jan-21 12:51 33.872886 -118.367075 318 6523ft 198kts
12-Jan-21 12:52 33.913853 -118.411204 318 6524ft 197kts
12-Jan-21 12:53 33.960670 -118.444673 338 6524ft 197kts
12-Jan-21 12:54 34.012143 -118.469048 338 6523ft 200kts
12-Jan-21 12:55 34.064122 -118.493702 338 6525ft 201kts
12-Jan-21 12:56 34.115894 -118.518155 338 6530ft 200kts
12-Jan-21 12:57 34.167935 -118.542985 333 6524ft 201kts
12-Jan-21 12:58 34.210395 -118.567116 336 7970ft 151kts
12-Jan-21 12:59 34.244408 -118.592966 306 9008ft 145kts
12-Jan-21 13:00 34.266119 -118.633239 301 9968ft 138kts
12-Jan-21 13:01 34.285415 -118.672181 300 10868ft 132kts
12-Jan-21 13:02 34.303869 -118.710088 299 11663ft 130kts
12-Jan-21 13:03 34.322373 -118.748269 299 12466ft 131kts
12-Jan-21 13:04 34.340735 -118.786235 299 13220ft 130kts
12-Jan-21 13:05 34.358717 -118.823443 299 14018ft 120kts
12-Jan-21 13:06 34.375514 -118.858260 300 14532ft 134kts
12-Jan-21 13:07 34.396623 -118.901866 300 14519ft 160kts
12-Jan-21 13:08 34.419786 -118.949925 300 14515ft 169kts
12-Jan-21 13:09 34.443874 -118.999990 300 14514ft 174kts
12-Jan-21 13:10 34.468344 -119.050912 299 14514ft 175kts
12-Jan-21 13:11 34.492899 -119.102089 299 14516ft 175kts
12-Jan-21 13:12 34.517424 -119.153299 299 14517ft 175kts
12-Jan-21 13:13 34.541919 -119.204481 299 14519ft 175kts
12-Jan-21 13:14 34.566343 -119.255626 299 14521ft 175kts
12-Jan-21 13:15 34.590792 -119.306881 299 14523ft 175kts
12-Jan-21 13:16 34.615088 -119.357912 299 14524ft 175kts
12-Jan-21 13:17 34.639660 -119.409554 299 14314ft 185kts
12-Jan-21 13:18 34.666600 -119.466269 299 13468ft 206kts
12-Jan-21 13:19 34.695978 -119.528233 299 12518ft 204kts
12-Jan-21 13:20 34.722926 -119.585226 299 12498ft 187kts
12-Jan-21 13:21 34.748357 -119.639044 299 12500ft 181kts
12-Jan-21 13:22 34.773276 -119.691865 298 12501ft 180kts
12-Jan-21 13:23 34.798220 -119.744842 298 12498ft 180kts
12-Jan-21 13:24 34.823077 -119.797692 298 12507ft 179kts
12-Jan-21 13:25 34.848910 -119.852690 298 11998ft 197kts
12-Jan-21 13:26 34.875643 -119.909729 298 11655ft 193kts
12-Jan-21 13:27 34.902706 -119.967544 298 11125ft 200kts
12-Jan-21 13:28 34.930459 -120.026941 299 10516ft 203kts
12-Jan-21 13:29 34.958080 -120.086163 299 9939ft 197kts
12-Jan-21 13:30 34.985136 -120.144265 299 9325ft 197kts
12-Jan-21 13:31 35.011991 -120.202067 299 8781ft 201kts
12-Jan-21 13:32 35.039903 -120.262150 299 7522ft 198kts
12-Jan-21 13:33 35.066160 -120.318805 299 6236ft 182kts
12-Jan-21 13:34 35.092586 -120.375938 299 5334ft 198kts
12-Jan-21 13:35 35.119045 -120.433207 301 4472ft 191kts
12-Jan-21 13:36 35.148804 -120.486331 305 3301ft 184kts
12-Jan-21 13:37 35.174845 -120.535383 281 2146ft 136kts
12-Jan-21 13:38 35.151153 -120.551162 141 2194ft 129kts
12-Jan-21 13:39 35.157504 -120.519988 359 2204ft 121kts
12-Jan-21 13:40 35.187407 -120.554380 305 1715ft 168kts
12-Jan-21 13:41 35.208350 -120.590407 306 1111ft 106kts
12-Jan-21 13:43 35.225051 -120.619518 305 611ft 106kts
12-Jan-21 13:44 35.237308 -120.639943 8 213ft 13kts
12-Jan-21 13:45 35.238201 -120.639533 9 213ft 4kts
12-Jan-21 13:46 35.238345 -120.639526 1 213ft 0kts
12-Jan-21 13:47 35.238345 -120.639526 1 213ft 0kts
12-Jan-21 13:48 35.238345 -120.639526 1 213ft 0kts
12-Jan-21 13:49 35.238345 -120.639526 1 213ft 0kts
12-Jan-21 13:50 35.238345 -120.639526 1 213ft 0kts
12-Jan-21 13:51 35.238345 -120.639526 1 213ft 0kts
12-Jan-21 13:52 35.238345 -120.639526 1 213ft 0kts
12-Jan-21 13:53 35.238345 -120.639526 1 213ft 0kts
12-Jan-21 13:54 35.238345 -120.639526 1 213ft 0kts
12-Jan-21 13:55 35.238345 -120.639526 1 213ft 0kts
12-Jan-21 13:56 35.238345 -120.639526 1 213ft 0kts
12-Jan-21 13:57 35.238345 -120.639526 1 213ft 0kts
12-Jan-21 13:57 35.238345 -120.639526 1 213ft 0kts

Navigation Log

Ident Type
Flight plan parsing failed, navigation log unavailable